Time;durP1;ratioP1;P1;durP2;ratioP2;P2;SDS_P1;SDS_P2;PMS_P1;PMS_P2;Temp;Humidity;BMP_temperature;BMP_pressure;BME280_temperature;BME280_humidity;BME280_pressure;Samples;Min_cycle;Max_cycle;Signal;HPM_P1;HPM_P2
2021/09/24 00:02:14;;;;;;;13.60;10.00;;;;;;;;;;5052068;28;20020;-72
2021/09/24 00:04:40;;;;;;;16.48;10.48;;;;;;;;;;5053411;28;20017;-71
2021/09/24 00:07:07;;;;;;;14.75;10.63;;;;;;;;;;5053342;28;20481;-72
2021/09/24 00:09:33;;;;;;;15.68;10.13;;;;;;;;;;5053323;28;20454;-69
2021/09/24 00:12:01;;;;;;;13.43;9.30;;;10.80;96.10;;;;;;5053216;28;20496;-73
2021/09/24 00:14:27;;;;;;;12.15;9.45;;;10.80;96.30;;;;;;5052120;28;20565;-71
2021/09/24 00:16:53;;;;;;;19.40;10.73;;;10.80;96.40;;;;;;5084494;28;20117;-72
2021/09/24 00:19:21;;;;;;;20.00;10.40;;;;;;;;;;5075118;28;20493;-71
2021/09/24 00:21:47;;;;;;;15.00;10.60;;;10.70;96.70;;;;;;5093049;28;20059;-73
2021/09/24 00:24:13;;;;;;;18.10;10.68;;;10.70;97.00;;;;;;5075209;28;20048;-70
2021/09/24 00:26:39;;;;;;;20.48;11.38;;;10.70;97.00;;;;;;5093276;28;20023;-69
2021/09/24 00:29:05;;;;;;;15.98;11.63;;;10.60;97.30;;;;;;5075118;28;20110;-73
2021/09/24 00:31:31;;;;;;;17.60;11.55;;;10.60;97.70;;;;;;5093172;28;20384;-70
2021/09/24 00:33:57;;;;;;;16.67;11.85;;;10.50;97.70;;;;;;5075039;28;20055;-72
2021/09/24 00:36:22;;;;;;;18.15;11.45;;;10.50;98.10;;;;;;5075012;28;20031;-73
2021/09/24 00:38:48;;;;;;;14.60;11.63;;;10.50;98.30;;;;;;5093112;28;20032;-71
2021/09/24 00:41:20;;;;;;;16.67;11.25;;;10.60;98.00;;;;;;5093050;28;20380;-73
2021/09/24 00:43:46;;;;;;;17.77;10.60;;;10.60;98.20;;;;;;5093096;28;20027;-74
2021/09/24 00:46:12;;;;;;;15.70;10.52;;;10.50;98.40;;;;;;5093289;28;20036;-70
2021/09/24 00:48:38;;;;;;;14.93;11.23;;;10.50;98.40;;;;;;5079088;28;20113;-73
2021/09/24 00:51:04;;;;;;;16.17;10.52;;;10.50;98.30;;;;;;5097498;28;20358;-75
2021/09/24 00:53:30;;;;;;;14.60;11.32;;;10.50;98.50;;;;;;5097280;28;20028;-72
2021/09/24 00:55:57;;;;;;;24.65;12.30;;;10.50;99.20;;;;;;5097156;28;20024;-74
2021/09/24 00:58:23;;;;;;;27.23;11.90;;;10.50;99.30;;;;;;5097050;28;20028;-71
2021/09/24 01:00:49;;;;;;;20.60;13.52;;;10.50;99.50;;;;;;5097109;28;20039;-71
2021/09/24 01:03:15;;;;;;;22.15;12.85;;;10.40;99.60;;;;;;5097034;28;20103;-71
2021/09/24 01:05:41;;;;;;;16.75;12.48;;;10.30;99.60;;;;;;5096983;28;20024;-71
2021/09/24 01:08:08;;;;;;;19.95;12.80;;;10.30;99.70;;;;;;5096934;28;20039;-73
2021/09/24 01:10:34;;;;;;;17.33;12.10;;;10.30;99.90;;;;;;5097168;28;20032;-72
2021/09/24 01:13:00;;;;;;;15.63;10.63;;;10.30;99.90;;;;;;5078364;28;20020;-73
2021/09/24 01:15:26;;;;;;;18.25;12.30;;;10.40;99.90;;;;;;5078400;28;20416;-72
2021/09/24 01:17:52;;;;;;;21.00;12.60;;;10.40;99.90;;;;;;5096734;28;20020;-74
2021/09/24 01:20:20;;;;;;;18.55;11.90;;;10.30;99.90;;;;;;5096695;28;20111;-69
2021/09/24 01:22:50;;;;;;;19.48;12.48;;;10.30;99.90;;;;;;5096396;28;20545;-71
2021/09/24 01:25:17;;;;;;;17.73;10.67;;;;;;;;;;5078371;28;20123;-72
2021/09/24 01:27:43;;;;;;;14.25;11.05;;;10.10;99.90;;;;;;5096873;28;20268;-71
2021/09/24 01:30:11;;;;;;;17.15;10.75;;;10.10;99.90;;;;;;5096528;28;20028;-72
2021/09/24 01:32:37;;;;;;;20.25;12.15;;;10.10;99.90;;;;;;5078196;28;20031;-72
2021/09/24 01:35:05;;;;;;;16.38;10.90;;;10.00;99.90;;;;;;5078256;28;20525;-72
2021/09/24 01:37:32;;;;;;;16.38;11.57;;;9.90;99.90;;;;;;5078040;28;20064;-71
2021/09/24 01:39:58;;;;;;;16.92;11.55;;;9.80;99.90;;;;;;5096361;28;20384;-72
2021/09/24 01:42:25;;;;;;;19.13;12.38;;;;;;;;;;5096255;28;20039;-72
2021/09/24 01:44:51;;;;;;;21.58;12.30;;;;;;;;;;5096559;28;20437;-71
2021/09/24 01:47:17;;;;;;;18.55;11.95;;;;;;;;;;5096485;28;20080;-72
2021/09/24 01:49:46;;;;;;;19.75;13.02;;;;;;;;;;5077968;28;20027;-72
2021/09/24 01:52:12;;;;;;;23.73;12.95;;;;;;;;;;5077917;28;20115;-72
2021/09/24 01:54:39;;;;;;;18.33;11.98;;;;;;;;;;5095852;28;20034;-71
2021/09/24 01:57:05;;;;;;;16.30;12.38;;;;;;;;;;5096001;28;20028;-72
2021/09/24 01:59:31;;;;;;;18.77;11.68;;;;;;;;;;5095902;28;20032;-72
2021/09/24 02:01:57;;;;;;;18.90;12.27;;;;;;;;;;5095921;28;20103;-72
2021/09/24 02:04:24;;;;;;;18.02;12.07;;;;;;;;;;5096235;28;20048;-72
2021/09/24 02:06:50;;;;;;;21.30;13.07;;;;;;;;;;5095606;28;20028;-73
2021/09/24 02:09:16;;;;;;;21.23;13.95;;;;;;;;;;5077592;28;20514;-73
2021/09/24 02:11:43;;;;;;;18.92;13.18;;;;;;;;;;5095742;28;20103;-72
2021/09/24 02:14:09;;;;;;;25.27;14.80;;;;;;;;;;5077582;28;20034;-72
2021/09/24 02:16:35;;;;;;;16.90;12.73;;;;;;;;;;5077044;28;20091;-73
2021/09/24 02:19:01;;;;;;;23.20;14.32;;;;;;;;;;5095293;28;20039;-72
2021/09/24 02:21:28;;;;;;;21.10;13.88;;;;;;;;;;5077333;28;20085;-72
2021/09/24 02:23:54;;;;;;;29.45;15.43;;;;;;;;;;5077382;28;20024;-72
2021/09/24 02:26:20;;;;;;;25.40;15.32;;;;;;;;;;5095447;28;20030;-72
2021/09/24 02:28:46;;;;;;;20.85;14.18;;;;;;;;;;5077276;28;20122;-72
2021/09/24 02:31:13;;;;;;;22.77;14.00;;;;;;;;;;5095379;28;20103;-72
2021/09/24 02:33:40;;;;;;;21.17;12.88;;;;;;;;;;5077215;28;20051;-72
2021/09/24 02:36:07;;;;;;;20.77;12.63;;;;;;;;;;5077151;28;20035;-72
2021/09/24 02:38:33;;;;;;;23.20;12.60;;;;;;;;;;5095291;28;20119;-72
2021/09/24 02:41:01;;;;;;;18.58;13.18;;;;;;;;;;5095202;28;20024;-72
2021/09/24 02:43:27;;;;;;;24.63;13.32;;;;;;;;;;5095102;28;20544;-72
2021/09/24 02:45:53;;;;;;;21.02;13.75;;;;;;;;;;5094896;28;20060;-71
2021/09/24 02:48:20;;;;;;;20.40;13.48;;;;;;;;;;5076834;28;20467;-73
2021/09/24 02:50:46;;;;;;;20.83;14.02;;;;;;;;;;5076860;28;20451;-72
2021/09/24 02:53:12;;;;;;;19.17;13.18;;;;;;;;;;5076825;28;20059;-70
2021/09/24 02:55:38;;;;;;;20.42;12.25;;;;;;;;;;5076758;28;20032;-71
2021/09/24 02:58:05;;;;;;;17.70;11.27;;;;;;;;;;5094918;28;20034;-71
2021/09/24 03:00:32;;;;;;;19.52;11.18;;;;;;;;;;5094795;28;20102;-72
2021/09/24 03:03:04;;;;;;;17.45;12.63;;;;;;;;;;5094777;28;20120;-72
2021/09/24 03:05:31;;;;;;;18.52;12.50;;;;;;;;;;5076553;28;20089;-71
2021/09/24 03:07:57;;;;;;;19.08;12.63;;;;;;;;;;5094710;28;20055;-70
2021/09/24 03:10:24;;;;;;;21.38;13.07;;;;;;;;;;5075930;28;20028;-70
2021/09/24 03:12:50;;;;;;;18.20;13.18;;;;;;;;;;5076419;28;20031;-71
2021/09/24 03:15:16;;;;;;;24.75;14.80;;;;;;;;;;5094292;28;20042;-70
2021/09/24 03:17:43;;;;;;;30.60;16.38;;;;;;;;;;5094482;28;20115;-70
2021/09/24 03:20:09;;;;;;;26.05;16.42;;;;;;;;;;5094429;28;20475;-71
2021/09/24 03:22:36;;;;;;;32.75;15.48;;;;;;;;;;5094349;28;20177;-71
2021/09/24 03:25:02;;;;;;;26.70;16.30;;;;;;;;;;5076182;28;20021;-72
2021/09/24 03:27:28;;;;;;;29.63;15.88;;;;;;;;;;5094543;28;20118;-71
2021/09/24 03:29:54;;;;;;;39.15;18.13;;;;;;;;;;5093934;28;20512;-72
2021/09/24 03:32:21;;;;;;;31.85;15.80;;;;;;;;;;5094184;28;20520;-70
2021/09/24 03:34:47;;;;;;;36.20;16.05;;;;;;;;;;5094186;28;20077;-70
2021/09/24 03:37:14;;;;;;;40.67;18.63;;;;;;;;;;5093997;28;20062;-70
2021/09/24 03:39:40;;;;;;;37.85;18.17;;;;;;;;;;5094146;28;20107;-71
2021/09/24 03:42:07;;;;;;;35.38;17.27;;;;;;;;;;5094021;28;20088;-72
2021/09/24 03:44:33;;;;;;;29.58;16.10;;;;;;;;;;5094296;28;20472;-72
2021/09/24 03:46:59;;;;;;;25.05;14.52;;;;;;;;;;5075989;28;20539;-70
2021/09/24 03:49:26;;;;;;;23.55;13.23;;;;;;;;;;5094167;28;20024;-71
2021/09/24 03:51:53;;;;;;;27.50;15.13;;;;;;;;;;5093814;28;20028;-72
2021/09/24 03:54:19;;;;;;;19.63;13.98;;;;;;;;;;5093809;28;20024;-70
2021/09/24 03:56:46;;;;;;;30.25;15.10;;;;;;;;;;5093785;28;20103;-72
2021/09/24 03:59:12;;;;;;;28.45;14.68;;;;;;;;;;5093746;28;20432;-70
2021/09/24 04:01:39;;;;;;;29.33;16.08;;;;;;;;;;5075429;28;20535;-71
2021/09/24 04:04:05;;;;;;;33.25;15.55;;;;;;;;;;5093612;28;20144;-71
2021/09/24 04:06:32;;;;;;;25.15;15.02;;;;;;;;;;5075449;28;20453;-71
2021/09/24 04:08:58;;;;;;;23.67;15.20;;;;;;;;;;5075392;28;20082;-70
2021/09/24 04:11:24;;;;;;;25.77;14.63;;;;;;;;;;5093513;28;20111;-71
2021/09/24 04:13:51;;;;;;;27.48;14.52;;;;;;;;;;5075216;28;20028;-70
2021/09/24 04:16:17;;;;;;;23.90;14.38;;;;;;;;;;5093294;28;20497;-71
2021/09/24 04:18:44;;;;;;;25.77;13.90;;;;;;;;;;5093637;28;20119;-72
2021/09/24 04:21:10;;;;;;;23.40;14.23;;;;;;;;;;5092643;28;20035;-71
2021/09/24 04:23:36;;;;;;;26.55;14.27;;;;;;;;;;5093322;28;20171;-71
2021/09/24 04:26:05;;;;;;;26.35;15.57;;;;;;;;;;5093305;28;20060;-70
2021/09/24 04:28:31;;;;;;;21.25;14.70;;;;;;;;;;5075129;28;20540;-72
2021/09/24 04:30:58;;;;;;;25.02;16.40;;;;;;;;;;5093262;28;20078;-71
2021/09/24 04:33:24;;;;;;;33.63;17.08;;;;;;;;;;5075054;28;20024;-71
2021/09/24 04:35:50;;;;;;;25.10;16.45;;;;;;;;;;5092945;28;20028;-71
2021/09/24 04:38:16;;;;;;;30.08;17.85;;;;;;;;;;5074941;28;20396;-71
2021/09/24 04:40:42;;;;;;;27.95;17.33;;;;;;;;;;5074797;28;20115;-72
2021/09/24 04:43:09;;;;;;;26.45;16.20;;;;;;;;;;5093161;28;20479;-73
2021/09/24 04:45:35;;;;;;;25.67;17.38;;;;;;;;;;5092044;28;20468;-70
2021/09/24 04:48:01;;;;;;;35.35;18.83;;;;;;;;;;5093111;28;20036;-71
2021/09/24 04:50:28;;;;;;;34.03;19.20;;;;;;;;;;5074914;28;20020;-72
2021/09/24 04:52:54;;;;;;;36.53;19.33;;;;;;;;;;5074867;28;20024;-70
2021/09/24 04:55:20;;;;;;;32.50;17.80;;;;;;;;;;5093040;28;20020;-72
2021/09/24 04:57:46;;;;;;;30.63;17.35;;;;;;;;;;5074743;28;20499;-70
2021/09/24 05:00:13;;;;;;;32.03;17.67;;;;;;;;;;5074879;28;20043;-71
2021/09/24 05:02:40;;;;;;;29.13;17.90;;;;;;;;;;5074787;28;20028;-71
2021/09/24 05:05:07;;;;;;;29.60;17.88;;;;;;;;;;5092951;28;20028;-71
2021/09/24 05:07:33;;;;;;;31.85;18.15;;;;;;;;;;5092874;28;20071;-71
2021/09/24 05:09:59;;;;;;;33.75;18.35;;;;;;;;;;5092542;28;20449;-71
2021/09/24 05:12:25;;;;;;;36.92;17.63;;;;;;;;;;5092815;28;20081;-71
2021/09/24 05:14:52;;;;;;;30.83;18.17;;;;;;;;;;5093066;28;20107;-71
2021/09/24 05:17:18;;;;;;;31.23;19.02;;;;;;;;;;5092403;28;20151;-72
2021/09/24 05:19:44;;;;;;;33.85;18.65;;;;;;;;;;5092683;28;20420;-72
2021/09/24 05:22:10;;;;;;;35.13;18.27;;;;;;;;;;5074312;28;20233;-72
2021/09/24 05:24:36;;;;;;;41.45;22.40;;;;;;;;;;5074484;28;20021;-71
2021/09/24 05:27:03;;;;;;;41.80;20.67;;;;;;;;;;5074521;28;20422;-71
2021/09/24 05:29:29;;;;;;;38.35;21.17;;;;;;;;;;5074438;28;20885;-72
2021/09/24 05:31:56;;;;;;;40.88;22.85;;;;;;;;;;5092886;28;20059;-71
2021/09/24 05:34:23;;;;;;;73.82;35.05;;;;;;;;;;5095899;28;20047;-71
2021/09/24 05:36:49;;;;;;;71.22;36.25;;;;;;;;;;5078137;28;20028;-71
2021/09/24 05:39:17;;;;;;;49.17;26.48;;;;;;;;;;5096155;28;20440;-71
2021/09/24 05:41:44;;;;;;;43.60;24.17;;;;;;;;;;5096310;28;20379;-71
2021/09/24 05:44:10;;;;;;;42.03;23.17;;;;;;;;;;5096482;28;20598;-71
2021/09/24 05:46:36;;;;;;;47.45;25.23;;;;;;;;;;5077917;28;20123;-69
2021/09/24 05:49:02;;;;;;;37.97;23.90;;;;;;;;;;5096143;28;20024;-71
2021/09/24 05:51:29;;;;;;;46.50;26.75;;;;;;;;;;5095836;28;20024;-71
2021/09/24 05:53:55;;;;;;;42.00;22.00;;;10.20;99.90;;;;;;5096080;28;20107;-71
2021/09/24 05:56:20;;;;;;;40.95;22.63;;;10.20;99.90;;;;;;5096057;28;20507;-71
2021/09/24 05:58:46;;;;;;;41.80;22.85;;;10.30;99.90;;;;;;5095855;28;20085;-71
2021/09/24 06:01:12;;;;;;;39.13;23.75;;;10.40;99.90;;;;;;5095854;28;20111;-72
2021/09/24 06:03:38;;;;;;;44.25;22.55;;;10.50;99.90;;;;;;5095797;28;20035;-70
2021/09/24 06:06:04;;;;;;;35.25;21.95;;;10.50;99.90;;;;;;5095871;28;20035;-72
2021/09/24 06:08:30;;;;;;;40.72;23.88;;;10.60;99.90;;;;;;5095801;28;20192;-71
2021/09/24 06:10:56;;;;;;;39.05;21.33;;;10.60;99.90;;;;;;5095641;28;20024;-70
2021/09/24 06:13:22;;;;;;;49.22;28.58;;;10.80;99.90;;;;;;5095759;28;20035;-70
2021/09/24 06:15:48;;;;;;;52.15;29.10;;;10.90;99.90;;;;;;5059626;28;20135;-70
2021/09/24 06:18:15;;;;;;;36.40;23.73;;;11.10;99.90;;;;;;5074760;28;20116;-73
2021/09/24 06:20:41;;;;;;;35.63;21.20;;;11.20;99.90;;;;;;5058213;28;20052;-72
2021/09/24 06:23:07;;;;;;;34.95;24.83;;;11.40;99.90;;;;;;5077285;28;20440;-71
2021/09/24 06:25:33;;;;;;;40.13;24.00;;;11.50;99.90;;;;;;5083452;28;20451;-72
2021/09/24 06:28:00;;;;;;;31.55;19.23;;;11.60;99.90;;;;;;5075030;28;20020;-72
2021/09/24 06:30:26;;;;;;;25.50;16.30;;;11.70;99.90;;;;;;5077153;28;20457;-71
2021/09/24 06:33:01;;;;;;;28.10;17.67;;;11.80;99.90;;;;;;5074419;28;20108;-70
2021/09/24 06:35:27;;;;;;;25.63;15.57;;;11.90;99.90;;;;;;5075181;28;20025;-73
2021/09/24 06:37:53;;;;;;;26.35;17.17;;;12.00;99.90;;;;;;5056720;28;20178;-71
2021/09/24 06:40:19;;;;;;;30.58;17.48;;;12.00;99.90;;;;;;5056444;28;20082;-73
2021/09/24 06:42:44;;;;;;;26.10;16.42;;;12.10;99.90;;;;;;5056693;28;20032;-69
2021/09/24 06:45:13;;;;;;;25.95;16.52;;;12.20;99.90;;;;;;5073796;28;20108;-70
2021/09/24 06:47:39;;;;;;;27.23;15.85;;;12.30;99.90;;;;;;5056723;28;20123;-68
2021/09/24 06:50:06;;;;;;;23.10;16.20;;;12.40;99.90;;;;;;5074645;28;20060;-69
2021/09/24 06:52:32;;;;;;;25.40;16.20;;;12.40;99.90;;;;;;5074435;28;20391;-68
2021/09/24 06:54:59;;;;;;;28.00;15.73;;;12.60;99.90;;;;;;5074204;28;20024;-69
2021/09/24 06:57:25;;;;;;;27.63;16.60;;;12.70;99.90;;;;;;5074403;28;20075;-70
2021/09/24 06:59:51;;;;;;;33.25;17.67;;;12.90;99.90;;;;;;5087705;28;20028;-70
2021/09/24 07:02:17;;;;;;;39.42;17.77;;;12.90;99.90;;;;;;5063024;28;20385;-69
2021/09/24 07:04:43;;;;;;;28.45;18.17;;;13.10;99.90;;;;;;5074474;28;20424;-70
2021/09/24 07:07:09;;;;;;;39.05;17.63;;;13.20;99.90;;;;;;5074510;28;20032;-69
2021/09/24 07:09:35;;;;;;;31.17;17.10;;;13.30;99.90;;;;;;5056329;28;20033;-70
2021/09/24 07:12:01;;;;;;;26.45;16.23;;;13.50;99.90;;;;;;5074513;28;20452;-71
2021/09/24 07:14:31;;;;;;;28.25;14.63;;;13.60;99.90;;;;;;5056064;28;20024;-72
2021/09/24 07:16:58;;;;;;;21.40;13.85;;;13.70;99.90;;;;;;5073966;28;20083;-71
2021/09/24 07:19:24;;;;;;;24.95;13.05;;;13.80;99.90;;;;;;5085825;28;20047;-71
2021/09/24 07:21:50;;;;;;;20.02;12.77;;;13.80;99.90;;;;;;5093745;28;20384;-72
2021/09/24 07:24:17;;;;;;;21.52;13.93;;;13.90;99.90;;;;;;5091532;28;20035;-71
2021/09/24 07:26:44;;;;;;;27.33;14.57;;;14.00;99.90;;;;;;5069251;28;20376;-72
2021/09/24 07:29:09;;;;;;;23.35;13.95;;;14.10;99.90;;;;;;5075932;28;20093;-71
2021/09/24 07:31:35;;;;;;;26.67;13.93;;;14.20;99.90;;;;;;5094070;28;20095;-72
2021/09/24 07:34:02;;;;;;;32.65;16.25;;;14.20;99.90;;;;;;5075613;28;20020;-71
2021/09/24 07:36:28;;;;;;;26.85;14.95;;;14.30;99.90;;;;;;5093971;28;20028;-71
2021/09/24 07:38:54;;;;;;;29.55;14.85;;;14.40;99.50;;;;;;5090305;28;20024;-72
2021/09/24 07:41:21;;;;;;;28.60;15.23;;;14.50;99.20;;;;;;5073635;28;20028;-72
2021/09/24 07:43:49;;;;;;;29.52;14.80;;;14.60;99.90;;;;;;5055501;28;20028;-71
2021/09/24 07:46:16;;;;;;;24.70;13.98;;;14.70;99.50;;;;;;5073579;28;20057;-71
2021/09/24 07:48:42;;;;;;;26.48;14.32;;;14.80;98.80;;;;;;5073400;28;20028;-72
2021/09/24 07:51:09;;;;;;;27.77;15.25;;;14.80;97.80;;;;;;5055510;28;20074;-71
2021/09/24 07:53:36;;;;;;;27.45;15.13;;;14.90;98.00;;;;;;5073064;28;20073;-70
2021/09/24 07:56:03;;;;;;;33.13;15.68;;;15.10;96.80;;;;;;5073089;28;20021;-70
2021/09/24 07:58:29;;;;;;;27.30;14.60;;;15.30;97.10;;;;;;5073207;28;20111;-69
2021/09/24 08:00:55;;;;;;;27.92;15.73;;;15.50;97.00;;;;;;5055089;28;20544;-70
2021/09/24 08:03:20;;;;;;;26.77;15.43;;;15.50;96.40;;;;;;5054826;28;20157;-70
2021/09/24 08:05:46;;;;;;;35.10;17.40;;;15.70;96.30;;;;;;5054867;28;20085;-70
2021/09/24 08:08:12;;;;;;;27.77;15.30;;;15.80;95.70;;;;;;5055064;28;20029;-72
2021/09/24 08:10:38;;;;;;;29.15;16.27;;;16.00;95.70;;;;;;5072900;28;20025;-71
2021/09/24 08:13:04;;;;;;;31.08;15.20;;;16.30;95.00;;;;;;5055014;28;20028;-71
2021/09/24 08:15:31;;;;;;;32.30;15.20;;;16.50;95.00;;;;;;5072559;28;20047;-72
2021/09/24 08:17:57;;;;;;;24.25;14.88;;;16.70;93.80;;;;;;5072822;28;20036;-71
2021/09/24 08:20:23;;;;;;;32.58;15.52;;;16.90;93.30;;;;;;5083514;28;20035;-71
2021/09/24 08:22:49;;;;;;;36.20;16.73;;;17.20;92.50;;;;;;5093164;28;20024;-71
2021/09/24 08:25:17;;;;;;;25.55;12.60;;;17.40;91.60;;;;;;5074745;28;20151;-73
2021/09/24 08:27:44;;;;;;;20.98;12.60;;;17.60;91.00;;;;;;5074905;28;20036;-70
2021/09/24 08:30:13;;;;;;;13.38;9.40;;;17.80;90.60;;;;;;5093074;28;20041;-72
2021/09/24 08:32:39;;;;;;;17.55;9.95;;;18.10;88.50;;;;;;5074663;28;20032;-68
2021/09/24 08:35:11;;;;;;;15.23;7.63;;;18.30;89.50;;;;;;5092696;28;20107;-72
2021/09/24 08:37:38;;;;;;;11.70;5.75;;;18.60;84.60;;;;;;5092950;28;20027;-72
2021/09/24 08:40:06;;;;;;;8.70;4.78;;;19.00;84.00;;;;;;5092885;28;20038;-71
2021/09/24 08:42:33;;;;;;;13.82;5.47;;;19.20;80.40;;;;;;5074601;28;20032;-71
2021/09/24 08:44:59;;;;;;;10.32;4.95;;;19.40;82.40;;;;;;5074507;28;20034;-73
2021/09/24 08:47:27;;;;;;;8.82;4.55;;;19.70;80.50;;;;;;5074673;28;20032;-70
2021/09/24 08:49:53;;;;;;;5.70;4.20;;;19.90;77.80;;;;;;5092809;28;20028;-71
2021/09/24 08:52:19;;;;;;;5.30;4.00;;;20.10;75.40;;;;;;5090340;28;20028;-73
2021/09/24 08:54:45;;;;;;;8.27;3.75;;;20.30;76.50;;;;;;5072444;28;20073;-73
2021/09/24 08:57:16;;;;;;;6.35;3.10;;;20.40;74.30;;;;;;5072371;28;20074;-73
2021/09/24 08:59:42;;;;;;;6.55;3.47;;;20.60;72.50;;;;;;5078167;28;20369;-71
2021/09/24 09:02:09;;;;;;;2.95;2.40;;;20.80;70.50;;;;;;5092284;28;20022;-71
2021/09/24 09:04:38;;;;;;;4.13;2.88;;;21.00;69.40;;;;;;5092411;28;20035;-71
2021/09/24 09:07:12;;;;;;;7.53;2.83;;;21.30;69.40;;;;;;5092529;28;20382;-70
2021/09/24 09:09:40;;;;;;;6.75;2.63;;;21.40;67.80;;;;;;5096933;28;20027;-73
2021/09/24 09:12:15;;;;;;;6.50;4.18;;;21.50;65.70;;;;;;5096766;28;20103;-71
2021/09/24 09:14:58;;;;;;;6.50;2.42;;;21.90;65.70;;;;;;5096341;28;20050;-70
2021/09/24 09:17:50;;;;;;;5.85;2.55;;;21.90;64.70;;;;;;5054898;28;20135;-72
2021/09/24 09:20:22;;;;;;;4.72;2.67;;;21.90;64.10;;;;;;5053482;28;20110;-70
2021/09/24 09:23:00;;;;;;;7.18;3.28;;;22.10;64.30;;;;;;5039026;28;20032;-69
2021/09/24 09:25:32;;;;;;;3.78;2.88;;;22.20;63.30;;;;;;5035736;28;20030;-71
2021/09/24 09:28:05;;;;;;;4.75;3.20;;;22.20;64.20;;;;;;5036478;28;20076;-71
2021/09/24 09:30:32;;;;;;;7.13;4.10;;;22.40;64.00;;;;;;5036139;28;20535;-72
2021/09/24 09:33:08;;;;;;;4.82;3.17;;;22.60;63.10;;;;;;5035489;28;20359;-70
2021/09/24 09:35:40;;;;;;;7.65;3.30;;;22.80;62.40;;;;;;5034675;28;20032;-71
2021/09/24 09:38:17;;;;;;;9.55;4.90;;;22.90;62.20;;;;;;5036067;28;20030;-71
2021/09/24 09:40:44;;;;;;;6.78;3.28;;;22.90;61.10;;;;;;5043768;28;20100;-71
2021/09/24 09:43:09;;;;;;;6.68;3.30;;;23.00;62.10;;;;;;5039634;28;20032;-70
2021/09/24 09:45:37;;;;;;;5.20;2.95;;;23.30;62.60;;;;;;5034310;28;20021;-71
2021/09/24 09:48:03;;;;;;;7.28;2.70;;;;;;;;;;5035835;28;20489;-70
2021/09/24 09:50:29;;;;;;;5.05;3.13;;;23.30;61.40;;;;;;5035805;28;20482;-69
2021/09/24 09:53:07;;;;;;;7.32;3.00;;;23.20;62.10;;;;;;5035463;28;20084;-71
2021/09/24 09:55:36;;;;;;;7.50;2.83;;;23.40;62.90;;;;;;5035661;28;20118;-71
2021/09/24 09:58:10;;;;;;;9.80;3.53;;;23.40;61.40;;;;;;5035669;28;20160;-71
2021/09/24 10:00:56;;;;;;;6.78;3.05;;;23.70;61.50;;;;;;5034527;28;20033;-71
2021/09/24 10:03:35;;;;;;;9.48;3.70;;;23.80;61.70;;;;;;5034416;28;20524;-70
2021/09/24 10:06:03;;;;;;;11.48;4.80;;;24.00;61.10;;;;;;5035579;28;20083;-69
2021/09/24 10:08:33;;;;;;;5.35;3.53;;;24.10;60.20;;;;;;5035571;28;20036;-73
2021/09/24 10:11:00;;;;;;;6.00;3.35;;;24.20;60.30;;;;;;5035485;28;20036;-71
2021/09/24 10:13:28;;;;;;;6.90;3.40;;;24.50;59.10;;;;;;5034158;28;20108;-69
2021/09/24 10:15:54;;;;;;;5.28;3.40;;;24.80;60.10;;;;;;5049569;28;20056;-73
2021/09/24 10:18:21;;;;;;;4.60;3.28;;;25.00;59.80;;;;;;5075222;28;20025;-73
2021/09/24 10:20:47;;;;;;;4.82;3.28;;;25.50;59.10;;;;;;5074125;28;20025;-73
2021/09/24 10:23:13;;;;;;;7.07;3.95;;;26.20;58.00;;;;;;5075320;28;20109;-73
2021/09/24 10:25:41;;;;;;;6.68;3.83;;;26.50;56.80;;;;;;5075533;28;20091;-72
2021/09/24 10:28:09;;;;;;;5.10;3.40;;;26.90;55.80;;;;;;5075251;28;20415;-73
2021/09/24 10:30:36;;;;;;;5.82;2.88;;;27.20;55.40;;;;;;5057165;28;20387;-73
2021/09/24 10:33:04;;;;;;;6.70;2.33;;;;;;;;;;5075054;28;20021;-72
2021/09/24 10:35:46;;;;;;;4.07;3.13;;;;;;;;;;5075223;28;20035;-71
2021/09/24 10:38:12;;;;;;;3.42;2.25;;;28.10;52.90;;;;;;5075031;28;20032;-73
2021/09/24 10:41:04;;;;;;;4.70;2.75;;;28.50;53.40;;;;;;5056648;28;20067;-73
2021/09/24 10:43:44;;;;;;;7.60;3.05;;;29.20;53.20;;;;;;5056933;28;20059;-73
2021/09/24 10:46:44;;;;;;;4.85;2.70;;;29.70;52.30;;;;;;5074873;28;20810;-71
2021/09/24 10:49:16;;;;;;;3.58;2.30;;;29.70;50.50;;;;;;4973587;28;20043;-71
2021/09/24 10:52:10;;;;;;;8.57;2.90;;;30.50;49.70;;;;;;4973545;28;20521;-72
2021/09/24 10:54:59;;;;;;;8.15;2.58;;;30.80;50.30;;;;;;4973571;28;20026;-71
2021/09/24 10:57:48;;;;;;;4.43;2.78;;;31.00;48.10;;;;;;4957145;28;20065;-71
2021/09/24 11:00:25;;;;;;;10.90;3.85;;;31.30;47.60;;;;;;4957109;28;20491;-71
2021/09/24 11:03:14;;;;;;;4.95;2.80;;;31.50;47.70;;;;;;4973608;28;20062;-71
2021/09/24 11:06:03;;;;;;;5.18;3.15;;;32.00;47.00;;;;;;4973356;28;20035;-71
2021/09/24 11:08:29;;;;;;;4.65;2.60;;;32.70;45.80;;;;;;4957100;28;20515;-71
2021/09/24 11:11:13;;;;;;;5.65;3.65;;;32.90;45.10;;;;;;4973261;28;20046;-71
2021/09/24 11:13:51;;;;;;;6.03;2.92;;;32.80;45.60;;;;;;4973164;28;20041;-71
2021/09/24 11:16:25;;;;;;;3.15;2.40;;;32.90;44.90;;;;;;4956704;28;20050;-71
2021/09/24 11:18:56;;;;;;;4.97;2.42;;;32.60;45.70;;;;;;4973004;28;20117;-71
2021/09/24 11:21:23;;;;;;;4.55;2.78;;;32.50;45.30;;;;;;4973036;28;20039;-71
2021/09/24 11:23:54;;;;;;;6.03;2.75;;;32.10;44.50;;;;;;4985745;28;20084;-71
2021/09/24 11:26:21;;;;;;;5.00;3.70;;;31.50;45.50;;;;;;5074403;28;20052;-71
2021/09/24 11:29:06;;;;;;;4.72;3.92;;;31.80;45.80;;;;;;5073866;28;20032;-71
2021/09/24 11:31:54;;;;;;;3.13;2.38;;;32.30;46.50;;;;;;5072937;28;20142;-71
2021/09/24 11:34:43;;;;;;;7.25;2.78;;;32.60;44.70;;;;;;5073684;28;20516;-71
2021/09/24 11:37:10;;;;;;;4.25;2.45;;;;;;;;;;5073653;28;20036;-72
2021/09/24 11:39:37;;;;;;;6.53;3.50;;;32.30;44.60;;;;;;5055753;28;20408;-71
2021/09/24 11:42:03;;;;;;;7.72;2.55;;;;;;;;;;5073606;28;20090;-71
2021/09/24 11:44:29;;;;;;;3.83;2.42;;;33.60;43.60;;;;;;5073632;28;20050;-71
2021/09/24 11:46:55;;;;;;;9.07;3.17;;;34.90;42.20;;;;;;5073338;28;20409;-71
2021/09/24 11:49:21;;;;;;;4.50;2.45;;;34.70;42.80;;;;;;5055442;28;20119;-71
2021/09/24 11:51:57;;;;;;;6.05;2.70;;;34.70;41.90;;;;;;5073506;28;20028;-71
2021/09/24 11:54:23;;;;;;;3.33;2.45;;;35.10;41.70;;;;;;5073486;28;20025;-72
2021/09/24 11:56:49;;;;;;;4.35;2.42;;;35.10;41.70;;;;;;5055551;28;20372;-72
2021/09/24 11:59:15;;;;;;;2.45;2.20;;;36.00;40.90;;;;;;5073054;28;20527;-71
2021/09/24 12:01:43;;;;;;;2.63;2.38;;;36.70;40.90;;;;;;5073402;28;20021;-71
2021/09/24 12:04:10;;;;;;;7.28;2.60;;;36.20;40.40;;;;;;5073366;28;20024;-72
2021/09/24 12:06:42;;;;;;;5.32;2.70;;;36.10;40.70;;;;;;5073682;28;20025;-72
2021/09/24 12:09:15;;;;;;;3.38;2.60;;;36.30;40.20;;;;;;5073386;28;20078;-71
2021/09/24 12:11:44;;;;;;;7.75;2.72;;;36.40;40.00;;;;;;5073317;28;20107;-71
2021/09/24 12:14:11;;;;;;;4.00;2.47;;;36.60;39.70;;;;;;5041543;28;20498;-71
2021/09/24 12:16:41;;;;;;;7.28;2.83;;;36.20;39.90;;;;;;5033535;28;20025;-71
2021/09/24 12:19:13;;;;;;;10.90;3.30;;;34.90;40.80;;;;;;5033256;28;20034;-71
2021/09/24 12:21:56;;;;;;;5.03;2.65;;;33.90;41.10;;;;;;5032825;28;20559;-71
2021/09/24 12:24:28;;;;;;;3.90;2.67;;;34.60;41.90;;;;;;5033223;28;20049;-72
2021/09/24 12:27:08;;;;;;;3.42;2.60;;;35.60;41.40;;;;;;5033258;28;20116;-71
2021/09/24 12:29:36;;;;;;;2.78;2.58;;;35.50;40.50;;;;;;5033399;28;20022;-71
2021/09/24 12:32:07;;;;;;;6.25;2.72;;;;;;;;;;5033164;28;20032;-72
2021/09/24 12:34:46;;;;;;;5.78;2.88;;;35.80;40.60;;;;;;5033173;28;20134;-71
2021/09/24 12:37:14;;;;;;;3.50;2.80;;;36.50;39.50;;;;;;5033157;28;20026;-72
2021/09/24 12:39:42;;;;;;;4.07;2.78;;;;;;;;;;5033158;28;20034;-71
2021/09/24 12:42:10;;;;;;;5.43;3.05;;;37.00;39.90;;;;;;5032281;28;20488;-72
2021/09/24 12:44:59;;;;;;;4.15;2.75;;;37.70;39.00;;;;;;5032982;28;20470;-72
2021/09/24 12:47:30;;;;;;;3.75;2.60;;;37.80;39.20;;;;;;5032986;28;20033;-72
2021/09/24 12:49:59;;;;;;;5.68;2.63;;;37.70;39.00;;;;;;5032732;28;20382;-72
2021/09/24 12:52:26;;;;;;;4.57;2.92;;;;;;;;;;5032970;28;20625;-72
2021/09/24 12:54:53;;;;;;;7.15;2.97;;;37.10;38.90;;;;;;5032749;28;20378;-72
2021/09/24 12:57:20;;;;;;;7.10;3.40;;;37.50;39.30;;;;;;5031558;28;20057;-71
2021/09/24 12:59:54;;;;;;;5.07;3.03;;;37.80;38.40;;;;;;5032911;28;20037;-71
2021/09/24 13:02:20;;;;;;;3.30;3.00;;;38.00;38.70;;;;;;5032948;28;20030;-72
2021/09/24 13:04:47;;;;;;;5.32;2.85;;;38.70;37.80;;;;;;5032815;28;20108;-71
2021/09/24 13:07:28;;;;;;;5.13;2.85;;;39.00;38.00;;;;;;5032758;28;20026;-71
2021/09/24 13:10:09;;;;;;;4.32;2.17;;;38.50;37.20;;;;;;5032895;28;20030;-71
2021/09/24 13:12:38;;;;;;;3.42;2.67;;;38.40;37.00;;;;;;5032786;28;20120;-72
2021/09/24 13:15:07;;;;;;;7.00;2.83;;;38.60;37.70;;;;;;5062371;28;20040;-72
2021/09/24 13:17:33;;;;;;;9.18;2.80;;;38.60;38.90;;;;;;5068475;28;20028;-72